Terminal Aerodrome Forecast
Issued by NWS La Crosse, WI

Home | Current Version | Previous Version | Text Only | Print | Product List | Glossary On
Versions: 1 2 3 4 5 6 7 8 9 10 11 12 13 14 15 16 17 18 19 20 21 22 23 24 25 26 27 28 29 30 31 32 33 34
000
FTUS43 KARX 131725
TAFRST
TAF
KRST 131725Z 1318/1418 VRB04KT P6SM SKC
     FM132200 15010KT P6SM SCT140
     FM140900 15016KT 3SM -SN SCT015 BKN030
     FM141100 15018G24KT 2SM -SN SCT008 OVC015
     FM141400 15018G24KT 1SM -SN SCT006 OVC010=

USA.gov is the U.S. government's official web portal to all federal, state and local government web resources and services.